Flight Number: AVA1519 Duration: 8:45
Departure: Vladivostok Knevichi (UHWW) at 22:00 Distance: 3462.82 Nm
Arrival: Moscow Sheremetyevo (UUEE) at 06:45 Equipment: A340

Weather Information
Vladivostok, Russia (UHWW) 43-07N 131-56E 183M Oct 22, 2020 - 07:30 AM EDT / 2020.10.22 1130 UTC
Wind: from the NNE (020 degrees) at 4 MPH (4 KT):0
Visibility: 5 mile(s):0 Temperature: 48 F (9 C) Dew Point: 33 F (1 C) Relative Humidity: 57% Pressure (altimeter): 29.88 in. Hg (1012 hPa)
ob: UHWW 221130Z 02002MPS 9000 NSC 09/01 Q1012 R25L/0///70 NOSIG RMK QFE757 cycle: 11
Sunrise: 21:38 Sunset: 08:13 (UTC)

Moscow / Sheremet'Ye , Russia (UUEE) 55-59N 037-30E Oct 22, 2020 - 07:30 AM EDT / 2020.10.22 1130 UTC
Wind: from the S (180 degrees) at 9 MPH (8 KT) (direction variable):0
Visibility: greater than 7 mile(s):0
Sky conditions: overcast Temperature: 41 F (5 C) Dew Point: 37 F (3 C) Relative Humidity: 86% Pressure (altimeter): 29.94 in. Hg (1014 hPa)
ob: UUEE 221130Z 18004MPS 160V220 9999 OVC007 05/03 Q1014 R24L/290051 R24R/290051 NOSIG cycle: 11
Sunrise: 04:22 Sunset: 14:06 (UTC)

TAF:2020/10/22 12:21 TAF UUEE 221054Z 2212/2312 17005G11MPS 8000 OVC007 TX13/2312Z TN06/2212Z TEMPO 2212/2306 2900 -SHRA BR FEW005 BKN016CB BECMG 2221/2223 25008G14MPS

This route has never been flown.

Route map